Fort Loramie, Ohio
Current Conditions -  °F | °C
As of 6:12 PM on Wednesday 17 Dec 2014 (Local Time) from KAXV Reporting Station
Overcast Overcast  
Wind Chill: 21°   Ceiling: 1200
Heat Index: 28°   Visibility: 10mi
Dew Point: 25°   Wind: 7mph
Humidity: 86%   Direction: 310°NW
Pressure: 30.21"   Gusts: NA
Location:  40.35°N, 84.37°W
Report Text: KAXV 172312Z AUTO 31006KT 10SM OVC012 M02/M04 A3021 RMK AO2
Loading
Personal Weather Stations






























Interactive Weather Map New forecast layout! Learn more

10-Day Weather Forecast

Advertisements
Track Severe Weather on mobile